Time;durP1;ratioP1;P1;durP2;ratioP2;P2;SDS_P1;SDS_P2;PMS_P1;PMS_P2;Temp;Humidity;BMP_temperature;BMP_pressure;BME280_temperature;BME280_humidity;BME280_pressure;Samples;Min_cycle;Max_cycle;Signal;HPM_P1;HPM_P2
2022/01/18 00:01:09;;;;;;;4.07;2.43;;;;;;;;;;5068346;28;20040;-68
2022/01/18 00:03:39;;;;;;;8.53;1.87;;;;;;;;;;5073788;28;20054;-69
2022/01/18 00:06:07;;;;;;;9.27;2.63;;;;;;;;;;5073959;28;20024;-69
2022/01/18 00:08:34;;;;;;;4.03;2.30;;;;;;;;;;5071710;28;20089;-69
2022/01/18 00:11:02;;;;;;;5.77;2.70;;;;;;;;;;5074077;28;20107;-68
2022/01/18 00:13:44;;;;;;;6.90;4.10;;;;;;;;;;5073710;28;20028;-68
2022/01/18 00:16:37;;;;;;;5.53;2.57;;;;;;;;;;5068977;28;20024;-68
2022/01/18 00:19:10;;;;;;;10.80;4.00;;;;;;;;;;5071274;28;20021;-68
2022/01/18 00:24:21;;;;;;;6.10;2.77;;;;;;;;;;5090481;28;20065;-67
2022/01/18 00:26:54;;;;;;;8.47;2.90;;;;;;;;;;5093844;28;20119;-67
2022/01/18 00:29:24;;;;;;;9.40;3.47;;;;;;;;;;5093763;28;20382;-67
2022/01/18 00:32:07;;;;;;;5.23;2.80;;;;;;;;;;5093625;28;20386;-67
2022/01/18 00:34:37;;;;;;;9.53;2.43;;;;;;;;;;5093985;28;20028;-67
2022/01/18 00:37:24;;;;;;;4.83;2.20;;;;;;;;;;5090801;28;20540;-67
2022/01/18 00:39:51;;;;;;;4.83;2.40;;;;;;;;;;5070677;28;20071;-67
2022/01/18 00:42:19;;;;;;;25.13;9.27;;;;;;;;;;5067999;28;20434;-67
2022/01/18 00:44:50;;;;;;;7.23;3.20;;;;;;;;;;5068385;28;20086;-67
2022/01/18 00:47:20;;;;;;;3.87;2.03;;;;;;;;;;5070977;28;20029;-67
2022/01/18 00:49:49;;;;;;;6.27;2.80;;;;;;;;;;5072994;28;20027;-67
2022/01/18 00:52:19;;;;;;;6.07;2.40;;;;;;;;;;5073203;28;21382;-67
2022/01/18 00:54:52;;;;;;;15.10;6.80;;;;;;;;;;5072774;28;20118;-67
2022/01/18 00:57:19;;;;;;;6.57;4.33;;;;;;;;;;5073058;28;20029;-67
2022/01/18 00:59:47;;;;;;;7.80;2.80;;;;;;;;;;5069549;28;20485;-67
2022/01/18 01:02:21;;;;;;;7.90;2.57;;;;;;;;;;5067747;28;20039;-67
2022/01/18 01:04:52;;;;;;;14.00;4.88;;;;;;;;;;5067354;28;20120;-67
2022/01/18 01:07:24;;;;;;;16.23;5.43;;;;;;;;;;5067671;28;20029;-67
2022/01/18 01:09:52;;;;;;;6.17;2.70;;;;;;;;;;5054992;28;20064;-67
2022/01/18 01:12:21;;;;;;;4.33;2.43;;;;;;;;;;5052692;28;20029;-67
2022/01/18 01:15:00;;;;;;;6.63;2.83;;;;;;;;;;5053099;28;20459;-67
2022/01/18 01:17:42;;;;;;;3.60;2.00;;;;;;;;;;5052539;28;20371;-67
2022/01/18 01:45:25;;;;;;;7.47;2.10;;;;;;;;;;5067486;28;20028;-67
2022/01/18 01:47:55;;;;;;;4.73;2.60;;;;;;;;;;5067456;28;20035;-67
2022/01/18 01:50:26;;;;;;;3.30;2.00;;;;;;;;;;5067451;28;20031;-67
2022/01/18 01:52:57;;;;;;;5.50;2.60;;;;;;;;;;5050522;28;20033;-66
2022/01/18 01:55:25;;;;;;;5.47;2.40;;;;;;;;;;5034255;28;20122;-67
2022/01/18 01:57:55;;;;;;;4.73;2.50;;;;;;;;;;5052093;28;20479;-67
2022/01/18 02:00:24;;;;;;;5.17;3.00;;;;;;;;;;5052381;28;20017;-67
2022/01/18 02:02:54;;;;;;;4.93;2.90;;;;;;;;;;5052191;28;20021;-67
2022/01/18 02:05:23;;;;;;;7.10;3.00;;;;;;;;;;5051032;28;20025;-67
2022/01/18 02:07:56;;;;;;;7.07;3.43;;;;;;;;;;5046657;28;20035;-67
2022/01/18 02:10:35;;;;;;;4.13;2.67;;;;;;;;;;5047086;28;20483;-67
2022/01/18 02:13:05;;;;;;;6.73;3.00;;;;;;;;;;5066187;28;20028;-67
2022/01/18 02:15:47;;;;;;;10.63;4.00;;;;;;;;;;5068300;28;20024;-67
2022/01/18 02:23:50;;;;;;;8.27;3.00;;;;;;;;;;5095872;28;20039;-67
2022/01/18 02:26:23;;;;;;;7.33;2.60;;;;;;;;;;5096051;28;20089;-67
2022/01/18 02:28:51;;;;;;;7.87;2.90;;;;;;;;;;5088929;28;20043;-67
2022/01/18 02:31:24;;;;;;;6.60;2.80;;;;;;;;;;5066809;28;20024;-67
2022/01/18 02:33:55;;;;;;;6.43;3.00;;;;;;;;;;5070718;28;20029;-67
2022/01/18 02:36:34;;;;;;;9.57;3.67;;;;;;;;;;5070460;28;20525;-67
2022/01/18 02:39:08;;;;;;;7.57;2.67;;;;;;;;;;5074391;28;20032;-67
2022/01/18 02:41:36;;;;;;;10.67;3.07;;;;;;;;;;5075773;28;20047;-67
2022/01/18 02:44:05;;;;;;;9.53;3.60;;;;;;;;;;5072463;28;20020;-67
2022/01/18 02:46:32;;;;;;;7.03;3.70;;;;;;;;;;5055486;28;20033;-67
2022/01/18 02:49:04;;;;;;;7.20;3.57;;;;;;;;;;5055435;28;20530;-67
2022/01/18 02:51:38;;;;;;;8.23;4.17;;;;;;;;;;5050973;28;20025;-67
2022/01/18 02:54:12;;;;;;;7.00;3.80;;;;;;;;;;5050396;28;20025;-67
2022/01/18 02:56:46;;;;;;;9.87;4.70;;;;;;;;;;5051202;28;20335;-67
2022/01/18 02:59:24;;;;;;;10.95;4.82;;;;;;;;;;5055183;28;20210;-67
2022/01/18 03:04:50;;;;;;;7.43;3.73;;;;;;;;;;5074875;28;20110;-67
2022/01/18 03:07:23;;;;;;;6.13;3.00;;;;;;;;;;5075165;28;20035;-67
2022/01/18 03:09:50;;;;;;;9.33;4.63;;;;;;;;;;5074916;28;20580;-67
2022/01/18 03:12:21;;;;;;;10.87;4.40;;;;;;;;;;5073530;28;20070;-67
2022/01/18 03:14:54;;;;;;;11.13;6.10;;;;;;;;;;5070093;28;20505;-67
2022/01/18 03:17:21;;;;;;;11.97;6.50;;;;;;;;;;5069954;28;20085;-67
2022/01/18 03:20:12;;;;;;;21.77;7.77;;;;;;;;;;5078274;28;20054;-67
2022/01/18 03:22:40;;;;;;;13.83;5.10;;;;;;;;;;5092056;28;20048;-67
2022/01/18 03:28:06;;;;;;;9.43;3.97;;;;;;;;;;5094918;28;20047;-67
2022/01/18 03:30:38;;;;;;;6.33;3.07;;;;;;;;;;5077400;28;20028;-67
2022/01/18 03:33:10;;;;;;;7.73;2.67;;;;;;;;;;5074606;28;20020;-67
2022/01/18 03:35:37;;;;;;;17.93;3.70;;;;;;;;;;5071230;28;20051;-67
2022/01/18 03:38:05;;;;;;;5.93;2.70;;;;;;;;;;5069471;28;20037;-67
2022/01/18 03:40:37;;;;;;;9.00;3.27;;;;;;;;;;5069552;28;20506;-67
2022/01/18 03:43:11;;;;;;;6.30;2.63;;;;;;;;;;5056318;28;20082;-67
2022/01/18 03:45:42;;;;;;;9.70;3.40;;;;;;;;;;5073060;28;20103;-67
2022/01/18 03:48:17;;;;;;;5.47;3.17;;;;;;;;;;5063923;28;20025;-67
2022/01/18 03:50:56;;;;;;;6.13;3.20;;;;;;;;;;5054433;28;20017;-67
2022/01/18 03:53:27;;;;;;;5.80;2.20;;;;;;;;;;5074200;28;20059;-67
2022/01/18 03:56:01;;;;;;;3.70;2.10;;;;;;;;;;5074085;28;20025;-67
2022/01/18 03:58:28;;;;;;;3.05;1.85;;;;;;;;;;5067062;28;20031;-68
2022/01/18 04:00:54;;;;;;;5.03;2.90;;;;;;;;;;5049123;28;20021;-67
2022/01/18 04:03:21;;;;;;;5.10;2.67;;;;;;;;;;5060585;28;20025;-67
2022/01/18 04:05:48;;;;;;;7.17;2.60;;;;;;;;;;5069097;28;20033;-67
2022/01/18 04:08:15;;;;;;;5.67;2.97;;;;;;;;;;5073179;28;20074;-67
2022/01/18 04:10:41;;;;;;;4.70;2.73;;;;;;;;;;5073858;28;20056;-67
2022/01/18 04:13:08;;;;;;;6.17;3.00;;;;;;;;;;5073856;28;20024;-67
2022/01/18 04:15:35;;;;;;;5.63;2.50;;;;;;;;;;5073518;28;20031;-66
2022/01/18 04:18:11;;;;;;;7.17;2.47;;;;;;;;;;5073967;28;20115;-67
2022/01/18 04:28:51;;;;;;;4.47;2.20;;;;;;;;;;5084956;28;20387;-67
2022/01/18 04:31:18;;;;;;;5.13;2.07;;;;;;;;;;5072581;28;20083;-67
2022/01/18 04:33:45;;;;;;;2.37;1.53;;;;;;;;;;5073512;28;20334;-67
2022/01/18 04:36:11;;;;;;;4.77;2.30;;;;;;;;;;5073554;28;20424;-67
2022/01/18 04:38:39;;;;;;;4.43;2.30;;;;;;;;;;5073386;28;20051;-67
2022/01/18 04:41:09;;;;;;;5.33;1.97;;;;;;;;;;5072026;28;20048;-67
2022/01/18 04:49:01;;;;;;;7.88;3.10;;;;;;;;;;5068523;28;20044;-67
2022/01/18 04:51:28;;;;;;;5.57;2.30;;;;;;;;;;5069715;28;20021;-67
2022/01/18 04:53:58;;;;;;;5.63;2.67;;;;;;;;;;5072742;28;20431;-66
2022/01/18 04:57:51;;;;;;;8.10;3.20;;;;;;;;;;5073160;28;20095;-66
2022/01/18 04:59:14;;;;;;;7.00;2.40;;;;;;;;;;5066136;28;20029;-67
2022/01/18 05:01:42;;;;;;;4.90;2.53;;;;;;;;;;5053104;28;20032;-67
2022/01/18 05:04:09;;;;;;;4.90;2.77;;;;;;;;;;5049403;28;20032;-67
2022/01/18 05:06:36;;;;;;;4.53;2.37;;;;;;;;;;5047874;28;20055;-66
2022/01/18 05:09:09;;;;;;;5.53;2.37;;;;;;;;;;5047944;28;20028;-67
2022/01/18 05:11:44;;;;;;;5.83;3.33;;;;;;;;;;5047888;28;20032;-67
2022/01/18 05:19:55;;;;;;;4.17;2.27;;;;;;;;;;5035725;28;20024;-67
2022/01/18 05:25:06;;;;;;;4.63;2.20;;;;;;;;;;5092731;28;20043;-67
2022/01/18 05:27:33;;;;;;;5.03;2.50;;;;;;;;;;5087546;28;20028;-66
2022/01/18 05:30:00;;;;;;;3.47;2.00;;;;;;;;;;5073889;28;20036;-67
2022/01/18 05:32:27;;;;;;;5.53;2.13;;;;;;;;;;5066969;28;20423;-67
2022/01/18 05:34:53;;;;;;;7.00;2.27;;;;;;;;;;5067172;28;20070;-68
2022/01/18 05:37:20;;;;;;;4.50;2.10;;;;;;;;;;5071884;28;20677;-67
2022/01/18 05:39:47;;;;;;;3.57;2.20;;;;;;;;;;5072329;28;20029;-68
2022/01/18 05:42:13;;;;;;;5.30;2.20;;;;;;;;;;5072308;28;20375;-68
2022/01/18 05:44:40;;;;;;;4.10;2.10;;;;;;;;;;5072385;28;20099;-71
2022/01/18 05:47:07;;;;;;;3.23;1.83;;;;;;;;;;5072217;28;20111;-70
2022/01/18 05:49:37;;;;;;;3.23;2.00;;;;;;;;;;5066711;28;20035;-72
2022/01/18 05:52:04;;;;;;;4.03;1.93;;;;;;;;;;5065186;28;20163;-68
2022/01/18 05:54:31;;;;;;;5.00;2.20;;;;;;;;;;5065695;28;20036;-69
2022/01/18 05:56:57;;;;;;;6.03;2.30;;;;;;;;;;5066996;28;20052;-69
2022/01/18 05:59:34;;;;;;;4.20;2.30;;;;;;;;;;5071570;28;20024;-68
2022/01/18 06:02:03;;;;;;;3.20;1.93;;;;;;;;;;5070121;28;20020;-69
2022/01/18 06:07:20;;;;;;;4.57;2.03;;;;;;;;;;5019581;28;20472;-69
2022/01/18 06:09:46;;;;;;;3.70;1.97;;;;;;;;;;5069952;28;20013;-69
2022/01/18 06:12:13;;;;;;;3.53;2.00;;;;;;;;;;5084334;28;20050;-69
2022/01/18 06:14:40;;;;;;;5.60;2.13;;;;;;;;;;5078077;28;20120;-69
2022/01/18 06:17:06;;;;;;;4.80;1.80;;;;;;;;;;5067950;28;20080;-69
2022/01/18 06:19:33;;;;;;;5.03;2.30;;;;;;;;;;5077976;28;20016;-69
2022/01/18 06:22:00;;;;;;;4.10;1.60;;;;;;;;;;5067702;28;20066;-69
2022/01/18 06:24:26;;;;;;;2.83;1.77;;;;;;;;;;5085959;28;20020;-68
2022/01/18 06:26:53;;;;;;;3.67;1.73;;;;;;;;;;5082850;28;20031;-69
2022/01/18 06:29:21;;;;;;;2.03;1.20;;;;;;;;;;5071323;28;20530;-69
2022/01/18 06:31:48;;;;;;;3.60;1.90;;;;;;;;;;5071272;28;20029;-69
2022/01/18 06:34:15;;;;;;;4.47;2.27;;;;;;;;;;5064955;28;20043;-69
2022/01/18 06:36:42;;;;;;;3.77;1.93;;;;;;;;;;5066579;28;20028;-69
2022/01/18 06:39:09;;;;;;;3.73;1.90;;;;;;;;;;5066451;28;20268;-69
2022/01/18 06:41:36;;;;;;;3.80;1.87;;;;;;;;;;5066614;28;20268;-69
2022/01/18 06:44:03;;;;;;;3.93;2.33;;;;;;;;;;5071190;28;20771;-69
2022/01/18 06:46:30;;;;;;;4.07;2.07;;;;;;;;;;5071801;28;20285;-69
2022/01/18 06:48:56;;;;;;;3.40;1.87;;;;;;;;;;5071672;28;20253;-69
2022/01/18 06:51:23;;;;;;;3.77;1.83;;;;;;;;;;5071748;28;20242;-69
2022/01/18 06:53:50;;;;;;;3.43;1.80;;;;;;;;;;5071603;28;20743;-69
2022/01/18 06:56:18;;;;;;;3.90;2.40;;;;;;;;;;5063945;28;20257;-69
2022/01/18 06:58:45;;;;;;;3.67;2.20;;;;;;;;;;5046088;28;20320;-69
2022/01/18 07:01:12;;;;;;;7.20;2.70;;;;;;;;;;5046064;28;20709;-69
2022/01/18 07:03:39;;;;;;;4.20;2.47;;;;;;;;;;5046186;28;20753;-69
2022/01/18 07:06:06;;;;;;;6.53;2.30;;;;;;;;;;5066085;28;20274;-69
2022/01/18 07:08:34;;;;;;;3.00;2.13;;;;;;;;;;5075107;28;20305;-69
2022/01/18 07:11:01;;;;;;;5.30;2.00;;;;;;;;;;5075117;28;20245;-69
2022/01/18 07:13:28;;;;;;;2.80;1.67;;;;;;;;;;5074794;28;20265;-69
2022/01/18 07:15:55;;;;;;;3.27;2.13;;;;;;;;;;5074967;28;20770;-69
2022/01/18 07:18:21;;;;;;;3.83;2.43;;;;;;;;;;5069653;28;20262;-69
2022/01/18 07:20:48;;;;;;;3.63;1.90;;;;;;;;;;5069666;28;20777;-69
2022/01/18 07:23:15;;;;;;;6.73;2.20;;;;;;;;;;5069672;28;20346;-69
2022/01/18 07:25:44;;;;;;;6.63;2.67;;;;;;;;;;5069595;28;20253;-69
2022/01/18 07:28:11;;;;;;;6.43;2.37;;;;;;;;;;5055878;28;20294;-69
2022/01/18 07:30:39;;;;;;;4.27;2.00;;;;;;;;;;5054823;28;20250;-69
2022/01/18 07:33:06;;;;;;;4.50;2.43;;;;;;;;;;5054722;28;20258;-69
2022/01/18 07:35:34;;;;;;;4.67;2.53;;;;;;;;;;5054336;28;20345;-69
2022/01/18 07:38:02;;;;;;;6.77;2.63;;;;;;;;;;5054573;28;20258;-69
2022/01/18 07:40:30;;;;;;;4.30;2.60;;;;;;;;;;5049337;28;20290;-69
2022/01/18 07:42:59;;;;;;;4.27;2.00;;;;;;;;;;5048896;28;20257;-69
2022/01/18 07:45:26;;;;;;;3.77;2.00;;;;;;;;;;5049232;28;20266;-69
2022/01/18 07:47:52;;;;;;;6.97;2.53;;;;;;;;;;5048973;28;20770;-69
2022/01/18 07:50:19;;;;;;;5.93;2.80;;;;;;;;;;5053680;28;20266;-69
2022/01/18 07:52:46;;;;;;;4.70;3.20;;;;;;;;;;5054166;28;20250;-69
2022/01/18 07:55:13;;;;;;;6.63;3.20;;;;;;;;;;5054191;28;20258;-69
2022/01/18 07:57:42;;;;;;;4.73;2.57;;;;;;;;;;5066309;28;20254;-69
2022/01/18 08:00:13;;;;;;;3.70;1.90;;;;;;;;;;5074130;28;20257;-69
2022/01/18 08:02:40;;;;;;;4.37;2.60;;;;;;;;;;5068873;28;20746;-69
2022/01/18 08:05:07;;;;;;;4.70;2.07;;;;;;;;;;5068628;28;20265;-69
2022/01/18 08:07:34;;;;;;;5.90;2.60;;;;;;;;;;5068691;28;20293;-69
2022/01/18 08:10:01;;;;;;;5.00;2.77;;;;;;;;;;5068602;28;20257;-69
2022/01/18 08:12:28;;;;;;;4.63;2.03;;;;;;;;;;5072758;28;20333;-69
2022/01/18 08:15:00;;;;;;;5.17;2.17;;;;;;;;;;5073832;28;20311;-69
2022/01/18 08:17:27;;;;;;;4.70;2.60;;;;;;;;;;5062356;28;20598;-69
2022/01/18 08:19:54;;;;;;;4.27;2.03;;;;;;;;;;5053800;28;20262;-69
2022/01/18 08:22:21;;;;;;;4.03;2.20;;;;;;;;;;5053671;28;20246;-69
2022/01/18 08:24:47;;;;;;;6.80;2.73;;;;;;;;;;5048702;28;20277;-69
2022/01/18 08:27:14;;;;;;;3.90;2.10;;;;;;;;;;5047937;28;20710;-69
2022/01/18 08:29:41;;;;;;;4.30;2.23;;;;;;;;;;5048326;28;20277;-69
2022/01/18 08:32:08;;;;;;;5.13;2.67;;;;;;;;;;5048377;28;20254;-69
2022/01/18 08:34:34;;;;;;;6.60;2.57;;;;;;;;;;5053474;28;20281;-69
2022/01/18 08:37:01;;;;;;;4.17;2.00;;;;;;;;;;5053573;28;20246;-69
2022/01/18 08:39:28;;;;;;;3.37;2.10;;;;;;;;;;5053389;28;20265;-69
2022/01/18 08:41:55;;;;;;;3.73;2.30;;;;;;;;;;5052918;28;20621;-69
2022/01/18 08:44:22;;;;;;;3.50;2.00;;;;;;;;;;5053263;28;20261;-69
2022/01/18 08:46:49;;;;;;;5.43;2.30;;;;;;;;;;5048366;28;20313;-69
2022/01/18 08:49:15;;;;;;;4.73;2.70;;;;;;;;;;5048066;28;20740;-69
2022/01/18 08:51:42;;;;;;;4.20;2.10;;;;;;;;;;5048087;28;20254;-69
2022/01/18 08:54:09;;;;;;;5.73;2.33;;;;;;;;;;5047936;28;20254;-69
2022/01/18 08:56:35;;;;;;;6.17;2.10;;;;;;;;;;5051526;28;20728;-69
2022/01/18 08:59:02;;;;;;;6.47;2.43;;;;;;;;;;5053071;28;20254;-69
2022/01/18 09:01:29;;;;;;;6.97;2.43;;;;;;;;;;5052683;28;20341;-69
2022/01/18 09:03:55;;;;;;;4.67;2.43;;;;;;;;;;5059701;28;20273;-69
2022/01/18 09:06:24;;;;;;;6.23;2.70;;;;;;;;;;5060863;28;20756;-69
2022/01/18 09:08:57;;;;;;;3.60;2.23;;;;;;;;;;5048530;28;20741;-69
2022/01/18 09:11:26;;;;;;;4.03;2.70;;;;;;;;;;5047290;28;20312;-69
2022/01/18 09:13:53;;;;;;;5.43;2.30;;;;;;;;;;5047452;28;20266;-69
2022/01/18 09:16:20;;;;;;;4.10;2.30;;;;;;;;;;5047561;28;20270;-69
2022/01/18 09:18:48;;;;;;;6.63;2.20;;;;;;;;;;5051268;28;20254;-69
2022/01/18 09:21:15;;;;;;;4.63;2.30;;;;;;;;;;5052424;28;20337;-69
2022/01/18 09:23:42;;;;;;;3.97;2.33;;;;;;;;;;5052566;28;20262;-69
2022/01/18 09:26:09;;;;;;;6.93;2.90;;;;;;;;;;5052013;28;20346;-69
2022/01/18 09:28:36;;;;;;;6.50;2.23;;;;;;;;;;5052229;28;20783;-69
2022/01/18 09:31:03;;;;;;;4.67;2.80;;;;;;;;;;5048313;28;21093;-69
2022/01/18 09:33:30;;;;;;;4.53;2.60;;;;;;;;;;5050744;28;20723;-69
2022/01/18 09:35:57;;;;;;;3.67;2.33;;;;;;;;;;5067320;28;20261;-69
2022/01/18 09:38:23;;;;;;;7.17;2.63;;;;;;;;;;5065295;28;20265;-69
2022/01/18 09:40:50;;;;;;;6.70;3.27;;;;;;;;;;5070615;28;20744;-69
2022/01/18 09:43:17;;;;;;;4.83;2.67;;;;;;;;;;5072497;28;20589;-69
2022/01/18 09:45:45;;;;;;;5.83;2.90;;;;;;;;;;5072320;28;20387;-69
2022/01/18 09:48:13;;;;;;;5.17;2.60;;;;;;;;;;5072361;28;20289;-69
2022/01/18 09:50:41;;;;;;;4.30;2.60;;;;;;;;;;5072318;28;20264;-69
2022/01/18 09:53:10;;;;;;;5.40;2.70;;;;;;;;;;5067838;28;20604;-69
2022/01/18 09:55:38;;;;;;;5.20;2.37;;;;;;;;;;5066704;28;20287;-69
2022/01/18 09:58:07;;;;;;;3.10;2.20;;;;;;;;;;5067165;28;21100;-69
2022/01/18 10:00:35;;;;;;;3.43;1.90;;;;;;;;;;5066924;28;20253;-69
2022/01/18 10:03:02;;;;;;;5.10;2.20;;;;;;;;;;5070585;28;20284;-69
2022/01/18 10:05:33;;;;;;;3.70;2.10;;;;;;;;;;5071371;28;20269;-69
2022/01/18 10:08:01;;;;;;;3.93;2.00;;;;;;;;;;5051735;28;20321;-69
2022/01/18 10:10:39;;;;;;;6.07;3.10;;;;;;;;;;5052052;28;20253;-69
2022/01/18 10:13:06;;;;;;;3.07;1.87;;;;;;;;;;5052197;28;20315;-69
2022/01/18 10:15:32;;;;;;;3.33;2.10;;;;;;;;;;5047288;28;20262;-69
2022/01/18 10:18:06;;;;;;;4.07;2.57;;;;;;;;;;5046724;28;20258;-68
2022/01/18 10:20:33;;;;;;;4.23;2.67;;;;;;;;;;5046467;28;20659;-69
2022/01/18 10:23:00;;;;;;;5.23;2.77;;;;;;;;;;5046735;28;20369;-67
2022/01/18 10:25:28;;;;;;;7.40;2.53;;;;;;;;;;5050609;28;20254;-69
2022/01/18 10:27:55;;;;;;;4.53;2.50;;;;;;;;;;5051885;28;20308;-69
2022/01/18 10:30:33;;;;;;;8.40;3.83;;;;;;;;;;5051896;28;20270;-69
2022/01/18 10:33:10;;;;;;;6.67;3.20;;;;;;;;;;5053011;28;20286;-69
2022/01/18 10:35:37;;;;;;;7.90;2.63;;;;;;;;;;5071033;28;20319;-69
2022/01/18 10:38:16;;;;;;;5.57;2.70;;;;;;;;;;5066666;28;20984;-69
2022/01/18 10:40:43;;;;;;;6.03;2.53;;;;;;;;;;5068706;28;20261;-69
2022/01/18 10:43:23;;;;;;;8.33;3.10;;;;;;;;;;5070157;28;20801;-69
2022/01/18 10:45:49;;;;;;;5.30;2.67;;;;;;;;;;5070530;28;20270;-69
2022/01/18 10:48:16;;;;;;;4.27;2.80;;;;;;;;;;5075090;28;20284;-69
2022/01/18 10:50:44;;;;;;;5.97;3.43;;;;;;;;;;5075508;28;20259;-69
2022/01/18 10:53:26;;;;;;;5.90;3.30;;;;;;;;;;5075379;28;20736;-68
2022/01/18 10:56:12;;;;;;;6.37;3.23;;;;;;;;;;5075368;28;20693;-69
2022/01/18 10:58:38;;;;;;;;;;;;;;;;;;5073693;28;20659;-69
2022/01/18 11:01:18;;;;;;;4.97;2.37;;;;;;;;;;5069907;28;20292;-69
2022/01/18 11:04:03;;;;;;;5.00;2.20;;;;;;;;;;5068196;28;20268;-69
2022/01/18 11:06:29;;;;;;;5.60;2.20;;;;;;;;;;5069853;28;20288;-69
2022/01/18 11:08:56;;;;;;;5.23;2.30;;;;;;;;;;5072430;28;20055;-69
2022/01/18 11:11:26;;;;;;;4.67;2.80;;;;;;;;;;5075171;28;20277;-69
2022/01/18 11:13:55;;;;;;;3.67;2.23;;;;;;;;;;5074916;28;20261;-69
2022/01/18 11:16:26;;;;;;;3.50;2.07;;;;;;;;;;5074921;28;20252;-68
2022/01/18 11:18:54;;;;;;;4.50;2.60;;;;;;;;;;5074984;28;20254;-69
2022/01/18 11:21:24;;;;;;;6.90;3.70;;;;;;;;;;5071851;28;20257;-68
2022/01/18 11:23:52;;;;;;;4.37;3.00;;;;;;;;;;5069568;28;20264;-69
2022/01/18 11:26:20;;;;;;;4.53;2.97;;;;;;;;;;5069455;28;20264;-69
2022/01/18 11:28:55;;;;;;;3.87;2.60;;;;;;;;;;5069345;28;20281;-69
2022/01/18 11:31:22;;;;;;;4.63;2.30;;;;;;;;;;5072403;28;20261;-68
2022/01/18 11:33:56;;;;;;;3.47;2.10;;;;;;;;;;5063588;28;20070;-66
2022/01/18 11:36:26;;;;;;;3.70;2.13;;;;;;;;;;5054338;28;20258;-69
2022/01/18 11:38:58;;;;;;;6.10;2.97;;;;;;;;;;5054678;28;20266;-68
2022/01/18 11:41:26;;;;;;;3.27;2.17;;;;;;;;;;5054496;28;20311;-68
2022/01/18 11:43:55;;;;;;;4.33;2.23;;;;;;;;;;5050309;28;20277;-68
2022/01/18 11:46:34;;;;;;;6.83;2.57;;;;;;;;;;5049225;28;20273;-68
2022/01/18 11:49:08;;;;;;;4.70;2.90;;;;;;;;;;5049217;28;20270;-69
2022/01/18 11:51:38;;;;;;;3.23;2.30;;;;;;;;;;5047761;28;20257;-68
2022/01/18 11:54:25;;;;;;;5.47;2.80;;;;;;;;;;5053161;28;20623;-68
2022/01/18 11:56:51;;;;;;;3.93;2.40;;;;;;;;;;5065002;28;20342;-66
2022/01/18 11:59:19;;;;;;;4.60;2.83;;;;;;;;;;5074109;28;20258;-66
2022/01/18 12:01:53;;;;;;;5.00;2.83;;;;;;;;;;5069311;28;20273;-66
2022/01/18 12:04:40;;;;;;;5.10;2.60;;;;;;;;;;5053820;28;20722;-66
2022/01/18 12:07:11;;;;;;;4.33;2.70;;;;;;;;;;5058770;28;20285;-66
2022/01/18 12:09:42;;;;;;;4.13;2.67;;;;;;;;;;5068848;28;20786;-69
2022/01/18 12:12:27;;;;;;;7.93;3.23;;;;;;;;;;5055101;28;20270;-66
2022/01/18 12:14:53;;;;;;;6.40;4.20;;;;;;;;;;5049757;28;20327;-69
2022/01/18 12:17:20;;;;;;;5.30;3.23;;;;;;;;;;5053808;28;20017;-67
2022/01/18 12:19:47;;;;;;;6.53;3.63;;;;;;;;;;5054017;28;20258;-66
2022/01/18 12:22:17;;;;;;;7.63;3.40;;;;;;;;;;5053766;28;20688;-66
2022/01/18 12:24:47;;;;;;;5.90;3.37;;;;;;;;;;5053647;28;20794;-66
2022/01/18 12:27:42;;;;;;;8.17;4.23;;;;;;;;;;5051521;28;20290;-66
2022/01/18 12:30:53;;;;;;;7.55;4.10;;;;;;;;;;5048199;28;20293;-66
2022/01/18 12:33:23;;;;;;;6.87;4.07;;;;;;;;;;5067472;28;20037;-66
2022/01/18 12:35:50;;;;;;;6.80;3.77;;;;;;;;;;5068192;28;20284;-66
2022/01/18 12:38:26;;;;;;;5.37;3.33;;;;;;;;;;5072403;28;20263;-66
2022/01/18 12:40:54;;;;;;;9.37;4.73;;;;;;;;;;5072387;28;20301;-66
2022/01/18 12:46:06;;;;;;;7.80;4.93;;;;;;;;;;5073351;28;20784;-66
2022/01/18 12:48:35;;;;;;;7.53;3.83;;;;;;;;;;5072971;28;20063;-66
2022/01/18 12:51:07;;;;;;;5.80;3.50;;;;;;;;;;5067682;28;20269;-66
2022/01/18 12:53:36;;;;;;;5.27;3.53;;;;;;;;;;5067965;28;20265;-66
2022/01/18 12:56:08;;;;;;;7.57;2.97;;;;;;;;;;5067841;28;20265;-66
2022/01/18 12:58:38;;;;;;;5.07;2.87;;;;;;;;;;5067331;28;20307;-66
2022/01/18 13:01:09;;;;;;;7.20;3.47;;;;;;;;;;5062735;28;20624;-66
2022/01/18 13:03:36;;;;;;;6.50;3.87;;;;;;;;;;5052449;28;20250;-66
2022/01/18 13:06:07;;;;;;;7.23;3.63;;;;;;;;;;5053919;28;20324;-66
2022/01/18 13:08:46;;;;;;;10.33;3.37;;;;;;;;;;5052941;28;20264;-66
2022/01/18 13:11:15;;;;;;;8.40;3.40;;;;;;;;;;5051692;28;20269;-67
2022/01/18 13:13:48;;;;;;;5.33;3.13;;;;;;;;;;5046991;28;20613;-66
2022/01/18 13:27:11;;;;;;;7.13;3.92;;;;;;;;;;5058213;28;20055;-67
2022/01/18 13:29:38;;;;;;;7.03;3.47;;;;;;;;;;5052734;28;20425;-66
2022/01/18 13:32:06;;;;;;;7.47;3.53;;;;;;;;;;5052347;28;20337;-66
2022/01/18 13:34:34;;;;;;;5.87;3.13;;;;;;;;;;5048660;28;20613;-66
2022/01/18 13:37:05;;;;;;;6.40;3.03;;;;;;;;;;5052923;28;20281;-66
2022/01/18 13:39:33;;;;;;;10.03;3.40;;;;;;;;;;5066857;28;20272;-66
2022/01/18 13:42:01;;;;;;;5.70;3.00;;;;;;;;;;5066691;28;20662;-66
2022/01/18 13:44:28;;;;;;;12.83;3.30;;;;;;;;;;5070654;28;20258;-66
2022/01/18 13:46:55;;;;;;;9.33;2.90;;;;;;;;;;5072273;28;20775;-66
2022/01/18 13:49:25;;;;;;;7.80;2.97;;;;;;;;;;5059967;28;20262;-66
2022/01/18 13:52:06;;;;;;;6.93;3.97;;;;;;;;;;5052348;28;20704;-65
2022/01/18 13:54:52;;;;;;;7.27;3.60;;;;;;;;;;5052277;28;20280;-66
2022/01/18 13:57:21;;;;;;;15.53;3.73;;;;;;;;;;5046956;28;20737;-66
2022/01/18 13:59:48;;;;;;;21.43;5.87;;;;;;;;;;5046984;28;20262;-68
2022/01/18 14:02:20;;;;;;;15.77;5.00;;;;;;;;;;5046523;28;20258;-68
2022/01/18 14:04:48;;;;;;;15.40;4.00;;;;;;;;;;5046957;28;20269;-68
2022/01/18 14:07:15;;;;;;;12.83;4.07;;;;;;;;;;5051650;28;20773;-68
2022/01/18 14:09:41;;;;;;;14.43;4.03;;;;;;;;;;5062453;28;20356;-68
2022/01/18 14:12:17;;;;;;;11.50;3.70;;;;;;;;;;5054858;28;20358;-68
2022/01/18 14:14:44;;;;;;;5.80;3.80;;;;;;;;;;5052248;28;20282;-68
2022/01/18 14:17:15;;;;;;;8.83;3.30;;;;;;;;;;5056008;28;20285;-68
2022/01/18 14:19:43;;;;;;;5.43;2.73;;;;;;;;;;5051082;28;20783;-68
2022/01/18 14:22:12;;;;;;;5.20;2.77;;;;;;;;;;5050977;28;20251;-68
2022/01/18 14:24:46;;;;;;;4.63;2.90;;;;;;;;;;5061062;28;20775;-68
2022/01/18 14:27:15;;;;;;;6.50;3.43;;;;;;;;;;5068749;28;20321;-71
2022/01/18 14:29:42;;;;;;;7.63;3.73;;;;;;;;;;5055893;28;20978;-66
2022/01/18 14:32:13;;;;;;;5.67;3.53;;;;;;;;;;5080492;28;20269;-64
2022/01/18 14:34:41;;;;;;;7.80;3.87;;;;;;;;;;5066989;28;20823;-65
2022/01/18 14:37:09;;;;;;;10.27;3.80;;;;;;;;;;5096233;28;20294;-66
2022/01/18 14:39:57;;;;;;;9.00;4.17;;;;;;;;;;5082652;28;20261;-66
2022/01/18 14:42:27;;;;;;;15.73;6.10;;;;;;;;;;5070645;28;20037;-65
2022/01/18 14:45:18;;;;;;;12.93;6.20;;;;;;;;;;5070837;28;20428;-65
2022/01/18 14:47:45;;;;;;;10.73;6.30;;;;;;;;;;5078092;28;20668;-65
2022/01/18 14:50:15;;;;;;;11.97;5.20;;;;;;;;;;5092954;28;20368;-65
2022/01/18 14:52:45;;;;;;;11.17;4.90;;;;;;;;;;5095697;28;20497;-65
2022/01/18 14:55:11;;;;;;;16.73;6.97;;;;;;;;;;5095741;28;20035;-65
2022/01/18 14:57:38;;;;;;;8.37;4.97;;;;;;;;;;5059626;28;20029;-65
2022/01/18 15:00:06;;;;;;;10.70;5.43;;;;;;;;;;5054847;28;20025;-65
2022/01/18 15:02:33;;;;;;;9.20;4.80;;;;;;;;;;5052770;28;20831;-66
2022/01/18 15:05:00;;;;;;;9.37;5.00;;;;;;;;;;5068375;28;20032;-65
2022/01/18 15:07:26;;;;;;;11.97;4.63;;;;;;;;;;5057100;28;20072;-65
2022/01/18 15:09:53;;;;;;;8.13;3.93;;;;;;;;;;5063824;28;20418;-65
2022/01/18 15:12:20;;;;;;;11.20;4.07;;;;;;;;;;5072361;28;20035;-65
2022/01/18 15:14:47;;;;;;;9.97;4.57;;;;;;;;;;5074424;28;20032;-66
2022/01/18 15:17:13;;;;;;;6.27;3.80;;;;;;;;;;5074830;28;20479;-65
2022/01/18 15:19:40;;;;;;;6.57;4.27;;;;;;;;;;5075135;28;20052;-65
2022/01/18 15:22:08;;;;;;;9.77;5.20;;;;;;;;;;5075207;28;20020;-65
2022/01/18 15:24:36;;;;;;;14.53;5.50;;;;;;;;;;5060786;28;20475;-66
2022/01/18 15:27:03;;;;;;;8.13;4.07;;;;;;;;;;5049645;28;20108;-66
2022/01/18 15:29:30;;;;;;;8.37;3.80;;;;;;;;;;5049387;28;20029;-66
2022/01/18 15:31:58;;;;;;;7.40;4.07;;;;;;;;;;5049407;28;20100;-66
2022/01/18 15:34:25;;;;;;;7.10;4.03;;;;;;;;;;5051758;28;20025;-66
2022/01/18 15:36:52;;;;;;;6.73;3.87;;;;;;;;;;5054803;28;20056;-66
2022/01/18 15:39:20;;;;;;;4.97;3.23;;;;;;;;;;5075983;28;20032;-67
2022/01/18 15:41:48;;;;;;;7.03;3.30;;;;;;;;;;5078138;28;20361;-67
2022/01/18 15:44:15;;;;;;;5.90;3.40;;;;;;;;;;5054747;28;20370;-67
2022/01/18 15:46:41;;;;;;;6.47;3.57;;;;;;;;;;5051902;28;20099;-67
2022/01/18 15:49:08;;;;;;;6.23;3.10;;;;;;;;;;5049380;28;20037;-67
2022/01/18 15:51:36;;;;;;;5.87;3.57;;;;;;;;;;5049421;28;20028;-67
2022/01/18 15:54:03;;;;;;;6.03;3.43;;;;;;;;;;5054924;28;20111;-67
2022/01/18 15:56:30;;;;;;;7.27;3.83;;;;;;;;;;5070928;28;20060;-68
2022/01/18 15:58:57;;;;;;;8.83;3.70;;;;;;;;;;5071699;28;20028;-71
2022/01/18 16:01:24;;;;;;;8.20;3.60;;;;;;;;;;5072299;28;20150;-72
2022/01/18 16:03:53;;;;;;;7.33;3.30;;;;;;;;;;5064142;28;20028;-74
2022/01/18 16:06:20;;;;;;;5.30;3.10;;;;;;;;;;5061942;28;20035;-70
2022/01/18 16:08:48;;;;;;;13.60;3.60;;;;;;;;;;5071817;28;20506;-69
2022/01/18 16:11:17;;;;;;;4.57;3.10;;;;;;;;;;5055034;28;20021;-69
2022/01/18 16:13:44;;;;;;;9.50;3.17;;;;;;;;;;5065159;28;20058;-70
2022/01/18 16:16:13;;;;;;;5.77;3.80;;;;;;;;;;5053070;28;20171;-70